Time;durP1;ratioP1;P1;durP2;ratioP2;P2;SDS_P1;SDS_P2;PMS_P1;PMS_P2;Temp;Humidity;BMP_temperature;BMP_pressure;BME280_temperature;BME280_humidity;BME280_pressure;Samples;Min_cycle;Max_cycle;Signal;HPM_P1;HPM_P2
2022/08/31 00:03:59;;;;;;;4.25;2.15;;;;;;;18.66;67.83;101737.31;5004193;28;20049;-68
2022/08/31 00:06:25;;;;;;;3.85;2.10;;;;;;;18.75;67.86;101739.28;5014403;28;20507;-68
2022/08/31 00:08:52;;;;;;;3.67;2.03;;;;;;;18.71;67.92;101743.13;5023570;28;20104;-68
2022/08/31 00:11:26;;;;;;;3.15;1.98;;;;;;;18.91;67.37;101745.25;5024349;28;20041;-69
2022/08/31 00:13:53;;;;;;;5.30;2.35;;;;;;;18.88;67.38;101734.84;5007132;28;20050;-69
2022/08/31 00:16:22;;;;;;;5.60;2.25;;;;;;;19.05;66.90;101741.59;5004774;28;20041;-69
2022/08/31 00:18:51;;;;;;;2.97;1.80;;;;;;;18.97;66.89;101747.47;5003965;28;20096;-69
2022/08/31 00:21:18;;;;;;;5.00;2.15;;;;;;;18.83;67.24;101743.13;5005501;28;20072;-69
2022/08/31 00:23:44;;;;;;;2.92;2.17;;;;;;;18.90;67.19;101755.03;5008898;28;20045;-69
2022/08/31 00:26:11;;;;;;;2.88;1.80;;;;;;;19.03;66.69;101749.66;5007438;28;20464;-68
2022/08/31 00:28:37;;;;;;;3.55;2.00;;;;;;;19.07;66.49;101747.69;5009237;28;20518;-68
2022/08/31 00:31:03;;;;;;;4.13;2.00;;;;;;;18.97;66.79;101750.13;5007920;28;20135;-68
2022/08/31 00:33:31;;;;;;;4.25;2.15;;;;;;;18.87;66.88;101744.63;5006071;28;20038;-69
2022/08/31 00:35:57;;;;;;;3.05;1.80;;;;;;;18.86;66.71;101750.03;4998090;28;20629;-69
2022/08/31 00:38:24;;;;;;;2.45;1.92;;;;;;;18.85;67.00;101741.19;5006579;28;20069;-69
2022/08/31 00:40:50;;;;;;;9.15;1.80;;;;;;;18.71;66.93;101743.13;5007451;28;20696;-69
2022/08/31 00:43:38;;;;;;;2.42;1.65;;;;;;;18.74;67.34;101746.41;5007849;28;20560;-69
2022/08/31 00:46:06;;;;;;;3.22;1.75;;;;;;;18.86;66.78;101747.38;5006331;28;20465;-69
2022/08/31 00:48:34;;;;;;;6.30;1.88;;;;;;;18.70;67.20;101750.25;5008296;28;20038;-69
2022/08/31 00:51:01;;;;;;;2.55;1.77;;;;;;;18.91;66.50;101751.41;5008261;28;20042;-69
2022/08/31 00:53:28;;;;;;;2.05;1.55;;;;;;;18.83;66.55;101752.91;5005559;28;20682;-69
2022/08/31 00:55:54;;;;;;;3.97;1.90;;;;;;;18.69;66.80;101745.06;5009807;28;20092;-69
2022/08/31 00:58:21;;;;;;;2.20;1.65;;;;;;;18.69;66.21;101747.72;4990285;28;20066;-69
2022/08/31 01:00:47;;;;;;;2.67;1.40;;;;;;;18.43;66.85;101755.63;5000049;28;20093;-69
2022/08/31 01:03:15;;;;;;;3.15;1.40;;;;;;;18.30;66.88;101754.75;5008505;28;20119;-69
2022/08/31 01:05:43;;;;;;;6.03;1.60;;;;;;;18.40;66.77;101753.16;5006066;28;20123;-69
2022/08/31 01:08:09;;;;;;;3.67;1.48;;;;;;;18.21;66.64;101743.94;5007099;28;20092;-69
2022/08/31 01:10:40;;;;;;;3.38;1.40;;;;;;;18.30;66.81;101738.81;5030372;28;20124;-69
2022/08/31 01:13:07;;;;;;;1.80;1.25;;;;;;;18.37;66.09;101745.41;5008918;28;20073;-69
2022/08/31 01:15:36;;;;;;;3.20;1.45;;;;;;;18.24;65.76;101747.22;4997463;28;20038;-69
2022/08/31 01:18:04;;;;;;;5.30;1.40;;;;;;;18.20;66.25;101737.75;4985980;28;20457;-68
2022/08/31 01:20:45;;;;;;;2.83;1.58;;;;;;;18.49;64.95;101743.72;4987986;28;20046;-69
2022/08/31 01:23:17;;;;;;;3.60;1.35;;;;;;;18.54;64.76;101741.66;5003467;28;20065;-69
2022/08/31 01:25:47;;;;;;;2.72;1.50;;;;;;;18.51;64.65;101730.34;5007401;28;20038;-69
2022/08/31 01:28:13;;;;;;;3.20;1.40;;;;;;;18.53;64.20;101736.44;5006754;28;20048;-69
2022/08/31 01:30:42;;;;;;;2.10;1.05;;;;;;;18.28;65.00;101735.44;5005447;28;20494;-69
2022/08/31 01:33:10;;;;;;;2.70;1.35;;;;;;;18.22;65.45;101732.31;5007348;28;20573;-69
2022/08/31 01:35:45;;;;;;;3.25;1.65;;;;;;;18.31;64.53;101737.88;5006207;28;20049;-69
2022/08/31 01:38:12;;;;;;;3.70;1.20;;;;;;;18.05;65.81;101737.94;5008130;28;20100;-69
2022/08/31 01:40:49;;;;;;;2.67;1.20;;;;;;;18.09;65.74;101745.59;5005637;28;20125;-68
2022/08/31 01:43:15;;;;;;;4.00;1.85;;;;;;;18.08;65.81;101738.56;5005647;28;20042;-68
2022/08/31 01:45:42;;;;;;;3.58;1.45;;;;;;;18.11;65.35;101737.53;5007779;28;20524;-68
2022/08/31 01:48:08;;;;;;;2.58;1.55;;;;;;;18.03;65.65;101737.19;5006681;28;20104;-68
2022/08/31 01:50:35;;;;;;;5.07;1.40;;;;;;;18.09;65.58;101737.63;5004393;28;20091;-68
2022/08/31 01:53:02;;;;;;;2.45;1.40;;;;;;;17.91;66.22;101741.53;5007945;28;20242;-68
2022/08/31 01:55:28;;;;;;;2.50;1.40;;;;;;;18.10;65.04;101739.34;5006462;28;20038;-68
2022/08/31 01:57:58;;;;;;;2.75;1.48;;;;;;;18.12;65.32;101739.22;5004756;28;20073;-68
2022/08/31 02:00:24;;;;;;;2.75;1.52;;;;;;;18.13;65.46;101736.47;5006470;28;20358;-68
2022/08/31 02:02:51;;;;;;;3.22;1.60;;;;;;;18.13;65.46;101736.47;5005475;28;20049;-69
2022/08/31 02:05:17;;;;;;;4.50;1.75;;;;;;;18.01;65.93;101745.25;5003344;28;20410;-69
2022/08/31 02:07:44;;;;;;;2.30;1.45;;;;;;;17.70;66.97;101748.25;5006971;28;20050;-69
2022/08/31 02:10:10;;;;;;;3.83;1.60;;;;;;;17.74;67.09;101745.25;5005666;28;20066;-69
2022/08/31 02:12:36;;;;;;;2.63;1.58;;;;;;;17.87;66.81;101748.84;5005529;28;20050;-69
2022/08/31 02:15:05;;;;;;;6.22;1.63;;;;;;;17.96;66.57;101740.25;5006387;28;20115;-69
2022/08/31 02:17:32;;;;;;;4.97;1.73;;;;;;;18.04;66.00;101739.72;5005663;28;20045;-69
2022/08/31 02:19:58;;;;;;;4.75;2.85;;;;;;;18.15;65.99;101744.31;5005624;28;20073;-69
2022/08/31 02:22:24;;;;;;;4.13;1.60;;;;;;;18.10;66.30;101743.78;5006172;28;20041;-69
2022/08/31 02:24:51;;;;;;;3.15;1.90;;;;;;;18.12;66.10;101739.22;5001074;28;20124;-69
2022/08/31 02:27:17;;;;;;;3.15;2.13;;;;;;;17.92;66.54;101745.88;5001184;28;20042;-69
2022/08/31 02:29:43;;;;;;;2.83;1.60;;;;;;;17.95;66.54;101743.03;5017878;28;20068;-69
2022/08/31 02:32:11;;;;;;;3.80;1.65;;;;;;;17.84;66.96;101748.19;5025049;28;20567;-69
2022/08/31 02:34:39;;;;;;;2.88;1.83;;;;;;;17.67;67.89;101753.72;5014025;28;20103;-69
2022/08/31 02:37:06;;;;;;;3.45;1.90;;;;;;;17.58;67.91;101749.88;5012270;28;20112;-69
2022/08/31 02:39:32;;;;;;;3.65;1.65;;;;;;;17.55;68.30;101752.72;5004604;28;20101;-69
2022/08/31 02:41:59;;;;;;;3.15;1.80;;;;;;;17.27;69.31;101742.16;5006181;28;20124;-69
2022/08/31 02:44:25;;;;;;;3.72;1.65;;;;;;;17.26;69.39;101754.56;5003373;28;20049;-69
2022/08/31 02:46:51;;;;;;;4.82;1.70;;;;;;;17.38;69.31;101748.47;5002621;28;20151;-69
2022/08/31 02:49:20;;;;;;;3.30;1.60;;;;;;;17.53;68.41;101751.94;4994430;28;20498;-69
2022/08/31 02:51:46;;;;;;;5.93;1.73;;;;;;;17.58;67.85;101751.69;4996293;28;20073;-69
2022/08/31 02:54:13;;;;;;;3.83;1.63;;;;;;;17.60;67.59;101752.44;5000513;28;20050;-69
2022/08/31 02:56:40;;;;;;;7.22;1.70;;;;;;;17.30;68.37;101749.91;5006123;28;20069;-69
2022/08/31 02:59:07;;;;;;;3.63;1.45;;;;;;;17.45;68.50;101752.44;5004962;28;20077;-69
2022/08/31 03:01:34;;;;;;;4.93;1.60;;;;;;;17.26;69.03;101743.94;5004944;28;20096;-69
2022/08/31 03:04:01;;;;;;;4.55;1.70;;;;;;;17.53;68.12;101744.84;5006495;28;20317;-69
2022/08/31 03:06:30;;;;;;;3.25;1.50;;;;;;;17.40;68.03;101749.25;5006978;28;20073;-69
2022/08/31 03:08:59;;;;;;;5.40;1.80;;;;;;;17.24;68.78;101748.50;5017394;28;20099;-69
2022/08/31 03:11:25;;;;;;;5.00;1.60;;;;;;;17.24;68.90;101751.16;5004774;28;20458;-69
2022/08/31 03:13:52;;;;;;;2.30;1.42;;;;;;;17.47;67.79;101750.56;5011577;28;20087;-69
2022/08/31 03:16:19;;;;;;;4.40;1.70;;;;;;;17.28;68.12;101752.69;5009297;28;20506;-69
2022/08/31 03:18:47;;;;;;;2.65;1.60;;;;;;;17.22;68.66;101745.09;5011853;28;20080;-69
2022/08/31 03:21:14;;;;;;;3.97;1.80;;;;;;;17.28;68.20;101741.22;5024880;28;20526;-69
2022/08/31 03:23:41;;;;;;;7.25;1.80;;;;;;;17.22;68.31;101742.44;5022328;28;20108;-69
2022/08/31 03:26:08;;;;;;;2.60;1.67;;;;;;;17.18;68.19;101750.72;5005109;28;20077;-69
2022/08/31 03:28:37;;;;;;;2.67;1.70;;;;;;;17.22;68.31;101746.91;5009955;28;20096;-69
2022/08/31 03:31:06;;;;;;;4.78;1.65;;;;;;;17.07;68.43;101751.38;5016933;28;20053;-69
2022/08/31 03:33:33;;;;;;;3.55;1.70;;;;;;;16.75;69.52;101747.22;5006953;28;20560;-69
2022/08/31 03:36:01;;;;;;;2.80;1.63;;;;;;;16.46;71.08;101748.97;5009657;28;20046;-69
2022/08/31 03:38:27;;;;;;;3.38;1.63;;;;;;;16.62;70.49;101749.78;5008623;28;20119;-69
2022/08/31 03:40:55;;;;;;;4.05;1.80;;;;;;;16.68;69.88;101748.53;5003543;28;20108;-69
2022/08/31 03:43:22;;;;;;;1.75;1.20;;;;;;;16.52;70.31;101751.22;5006514;28;20038;-69
2022/08/31 03:45:48;;;;;;;4.35;1.50;;;;;;;16.57;69.74;101741.25;5007978;28;20077;-69
2022/08/31 03:48:15;;;;;;;2.53;1.50;;;;;;;16.47;70.34;101742.72;5022775;28;20053;-69
2022/08/31 03:50:42;;;;;;;3.55;1.70;;;;;;;16.35;70.76;101738.16;5025135;28;20077;-69
2022/08/31 03:53:09;;;;;;;2.63;1.58;;;;;;;16.46;70.51;101744.53;5004628;28;20046;-69
2022/08/31 03:55:38;;;;;;;2.95;1.75;;;;;;;16.55;69.85;101746.59;5010058;28;20115;-69
2022/08/31 03:58:07;;;;;;;4.25;2.20;;;;;;;16.43;70.42;101746.50;5008784;28;20077;-69
2022/08/31 04:00:34;;;;;;;2.85;1.90;;;;;;;16.49;70.04;101735.53;5014720;28;20045;-69
2022/08/31 04:03:01;;;;;;;3.15;1.85;;;;;;;16.40;69.99;101744.91;5022047;28;20054;-69
2022/08/31 04:05:29;;;;;;;2.83;1.70;;;;;;;16.47;69.96;101748.03;5000097;28;20046;-69
2022/08/31 04:07:55;;;;;;;5.35;2.00;;;;;;;16.36;70.41;101756.63;5004969;28;20045;-69
2022/08/31 04:10:22;;;;;;;3.00;1.80;;;;;;;16.40;70.37;101747.53;5017770;28;20041;-69
2022/08/31 04:12:49;;;;;;;3.38;1.80;;;;;;;16.41;69.81;101758.97;5008995;28;20048;-69
2022/08/31 04:15:18;;;;;;;3.38;1.70;;;;;;;16.37;70.62;101752.16;4999468;28;20041;-69
2022/08/31 04:17:45;;;;;;;2.85;1.60;;;;;;;16.35;69.85;101754.03;5025294;28;20049;-69
2022/08/31 04:20:11;;;;;;;5.10;1.88;;;;;;;16.18;70.58;101757.69;5022043;28;20099;-70
2022/08/31 04:22:38;;;;;;;5.75;2.00;;;;;;;16.30;70.56;101756.09;5028766;28;20045;-69
2022/08/31 04:25:05;;;;;;;5.68;2.00;;;;;;;16.25;70.48;101766.97;5014787;28;20046;-69
2022/08/31 04:27:31;;;;;;;4.03;1.75;;;;;;;16.16;70.47;101770.16;4994487;28;20046;-69
2022/08/31 04:29:57;;;;;;;3.65;1.63;;;;;;;15.84;71.96;101774.69;4990801;28;20136;-69
2022/08/31 04:32:25;;;;;;;4.35;1.70;;;;;;;15.92;71.88;101776.88;5006559;28;20041;-69
2022/08/31 04:34:51;;;;;;;5.53;2.30;;;;;;;15.72;72.70;101780.66;5006747;28;20057;-69
2022/08/31 04:37:18;;;;;;;4.38;2.17;;;;;;;15.84;72.38;101781.75;5008239;28;20045;-69
2022/08/31 04:39:44;;;;;;;3.45;1.75;;;;;;;15.98;72.05;101780.03;5006907;28;20050;-69
2022/08/31 04:42:11;;;;;;;6.47;2.30;;;;;;;15.90;71.67;101779.59;5007676;28;20142;-69
2022/08/31 04:44:38;;;;;;;5.78;2.00;;;;;;;16.15;70.67;101786.13;5006901;28;20128;-69
2022/08/31 04:47:04;;;;;;;5.65;1.95;;;;;;;16.16;70.86;101791.31;5005041;28;20665;-69
2022/08/31 04:49:32;;;;;;;7.55;2.08;;;;;;;16.00;70.89;101786.06;5009078;28;20057;-69
2022/08/31 04:51:58;;;;;;;2.55;1.95;;;;;;;15.95;71.88;101787.28;5007362;28;20586;-69
2022/08/31 04:54:25;;;;;;;5.25;1.88;;;;;;;16.04;71.50;101792.03;5006691;28;20045;-69
2022/08/31 04:56:51;;;;;;;4.22;2.10;;;;;;;15.90;71.75;101799.91;5009923;28;20046;-69
2022/08/31 04:59:20;;;;;;;3.38;1.85;;;;;;;15.96;72.14;101792.47;5006252;28;20177;-69
2022/08/31 05:01:46;;;;;;;3.03;2.22;;;;;;;16.03;72.40;101801.78;5000862;28;20072;-69
2022/08/31 05:04:15;;;;;;;8.43;2.22;;;;;;;16.12;72.50;101789.78;5005029;28;20498;-69
2022/08/31 05:06:45;;;;;;;3.58;1.70;;;;;;;16.11;73.20;101790.75;5007872;28;20526;-69
2022/08/31 05:09:19;;;;;;;3.00;2.00;;;;;;;16.00;73.94;101793.16;5006882;28;20038;-69
2022/08/31 05:11:46;;;;;;;7.75;2.22;;;;;;;15.96;73.66;101784.53;5005868;28;20116;-69
2022/08/31 05:14:13;;;;;;;2.08;1.52;;;;;;;16.07;73.78;101783.94;5007993;28;20045;-69
2022/08/31 05:16:41;;;;;;;3.90;1.80;;;;;;;15.99;73.82;101786.16;5006141;28;20486;-69
2022/08/31 05:19:07;;;;;;;2.78;2.00;;;;;;;16.17;73.44;101781.59;5007725;28;20069;-69
2022/08/31 05:21:36;;;;;;;5.43;2.00;;;;;;;16.16;73.42;101788.69;5008227;28;20042;-69
2022/08/31 05:24:06;;;;;;;6.38;2.38;;;;;;;16.43;72.38;101783.56;5006761;28;20457;-69
2022/08/31 05:26:35;;;;;;;4.32;2.00;;;;;;;16.57;72.17;101788.06;5006310;28;20060;-69
2022/08/31 05:29:04;;;;;;;3.95;2.20;;;;;;;16.69;71.53;101784.69;5005228;28;20921;-69
2022/08/31 05:31:31;;;;;;;4.55;2.10;;;;;;;16.83;71.00;101782.03;5008041;28;20046;-69
2022/08/31 05:33:58;;;;;;;3.65;2.20;;;;;;;16.82;71.14;101775.88;5006453;28;20077;-69
2022/08/31 05:36:25;;;;;;;5.65;2.08;;;;;;;17.11;69.76;101782.03;5004106;28;20135;-69
2022/08/31 05:38:52;;;;;;;3.95;2.00;;;;;;;17.16;70.08;101782.59;5007226;28;20042;-69
2022/08/31 05:41:21;;;;;;;8.15;2.30;;;;;;;17.25;69.48;101797.94;5010602;28;20421;-69
2022/08/31 05:43:47;;;;;;;8.65;2.45;;;;;;;17.33;68.95;101795.63;5005521;28;20441;-69
2022/08/31 05:46:15;;;;;;;6.07;1.90;;;;;;;17.10;69.66;101798.91;5003119;28;20124;-69
2022/08/31 05:48:42;;;;;;;7.20;2.70;;;;;;;17.12;69.31;101790.81;5005998;28;20045;-69
2022/08/31 05:51:12;;;;;;;5.00;2.08;;;;;;;17.42;68.62;101791.56;5005301;28;20046;-69
2022/08/31 05:53:39;;;;;;;3.58;1.75;;;;;;;17.48;68.11;101794.66;5006059;28;20044;-69
2022/08/31 05:56:08;;;;;;;4.70;2.10;;;;;;;17.59;68.28;101795.84;5008225;28;20116;-69
2022/08/31 05:58:38;;;;;;;3.85;1.80;;;;;;;17.91;66.88;101797.25;5006260;28;20042;-69
2022/08/31 06:01:11;;;;;;;5.20;1.95;;;;;;;18.06;66.27;101801.53;5006905;28;20096;-69
2022/08/31 06:03:38;;;;;;;3.42;1.80;;;;;;;18.41;65.28;101805.34;5005382;28;20414;-69
2022/08/31 06:06:04;;;;;;;5.85;2.00;;;;;;;18.67;64.89;101802.72;5007301;28;20054;-69
2022/08/31 06:08:31;;;;;;;3.58;1.83;;;;;;;19.04;64.15;101804.53;5007306;28;20120;-70
2022/08/31 06:10:59;;;;;;;6.85;1.92;;;;;;;19.09;62.72;101805.09;5012825;28;20045;-69
2022/08/31 06:13:25;;;;;;;4.03;1.70;;;;;;;19.42;62.45;101813.34;5011854;28;20081;-69
2022/08/31 06:15:54;;;;;;;5.30;1.58;;;;;;;19.62;61.41;101817.22;5006096;28;20049;-69
2022/08/31 06:18:21;;;;;;;3.88;1.50;;;;;;;20.12;60.91;101818.00;5004851;28;20042;-69
2022/08/31 06:20:48;;;;;;;2.97;1.75;;;;;;;20.31;60.10;101823.66;5006495;28;20387;-69
2022/08/31 06:23:16;;;;;;;3.83;1.60;;;;;;;20.35;59.75;101822.47;5005530;28;20046;-69
2022/08/31 06:25:42;;;;;;;5.80;1.55;;;;;;;20.69;58.19;101826.94;5005135;28;20141;-69
2022/08/31 06:28:13;;;;;;;4.65;1.80;;;;;;;20.88;57.16;101821.88;5019086;28;20076;-69
2022/08/31 06:30:39;;;;;;;4.88;1.70;;;;;;;21.07;57.66;101810.59;5025036;28;20060;-69
2022/08/31 06:33:07;;;;;;;7.07;1.88;;;;;;;21.56;55.50;101822.75;5020781;28;20046;-69
2022/08/31 06:35:33;;;;;;;6.22;1.80;;;;;;;21.58;55.89;101818.97;5006188;28;20050;-69
2022/08/31 06:38:00;;;;;;;5.80;1.55;;;;;;;22.09;55.03;101819.25;5005312;28;20057;-69
2022/08/31 06:40:27;;;;;;;6.25;2.42;;;;;;;22.63;53.12;101823.59;5004257;28;20119;-70
2022/08/31 06:42:54;;;;;;;5.15;1.60;;;;;;;22.51;53.20;101824.63;5005334;28;20289;-69
2022/08/31 06:45:20;;;;;;;5.82;1.80;;;;;;;22.67;53.23;101825.03;4996791;28;20467;-69
2022/08/31 06:47:46;;;;;;;8.40;1.65;;;;;;;22.64;52.35;101830.63;5003968;28;20042;-69
2022/08/31 06:50:14;;;;;;;5.05;1.50;;;;;;;22.96;51.98;101825.22;5001354;28;20104;-69
2022/08/31 06:52:41;;;;;;;5.00;2.03;;;;;;;23.08;50.99;101827.69;5005541;28;20046;-69
2022/08/31 06:55:09;;;;;;;4.10;1.20;;;;;;;23.10;51.46;101827.53;5004322;28;20434;-70
2022/08/31 06:57:36;;;;;;;6.10;1.77;;;;;;;23.00;51.89;101832.84;5006050;28;20515;-70
2022/08/31 07:00:02;;;;;;;3.63;1.60;;;;;;;22.57;54.21;101824.13;5005122;28;20050;-70
2022/08/31 07:02:29;;;;;;;5.35;1.80;;;;;;;22.29;54.87;101830.94;5004904;28;20049;-70
2022/08/31 07:04:55;;;;;;;3.00;1.63;;;;;;;22.69;54.64;101823.09;5005571;28;20494;-70
2022/08/31 07:07:23;;;;;;;3.65;1.48;;;;;;;23.08;52.42;101825.00;5004989;28;20433;-70
2022/08/31 07:09:49;;;;;;;2.30;1.50;;;;;;;23.48;52.89;101826.88;5003536;28;20123;-70
2022/08/31 07:12:16;;;;;;;6.10;1.75;;;;;;;24.15;48.69;101837.75;5007600;28;20049;-70
2022/08/31 07:14:45;;;;;;;3.28;1.38;;;;;;;23.39;49.94;101835.72;5005701;28;20095;-70
2022/08/31 07:17:11;;;;;;;8.00;1.45;;;;;;;24.09;49.55;101839.13;5022116;28;20132;-70
2022/08/31 07:19:38;;;;;;;8.55;1.67;;;;;;;24.33;48.28;101828.00;4996250;28;20100;-70
2022/08/31 07:22:08;;;;;;;5.22;1.58;;;;;;;24.58;47.49;101839.97;5001362;28;20116;-70
2022/08/31 07:24:36;;;;;;;3.28;1.30;;;;;;;24.62;47.31;101841.38;5005074;28;20060;-70
2022/08/31 07:27:07;;;;;;;3.30;1.40;;;;;;;24.61;48.45;101837.03;5005977;28;20077;-69
2022/08/31 07:29:39;;;;;;;2.22;1.30;;;;;;;25.12;47.09;101848.22;5005832;28;20485;-69
2022/08/31 07:32:06;;;;;;;2.70;1.08;;;;;;;25.47;46.30;101835.91;5012695;28;20092;-69
2022/08/31 07:34:32;;;;;;;3.58;1.42;;;;;;;25.38;46.26;101840.34;5001351;28;20046;-69
2022/08/31 07:42:33;;;;;;;3.13;1.38;;;;;;;26.10;45.45;101843.03;5004633;28;20072;-69
2022/08/31 07:45:04;;;;;;;5.72;1.50;;;;;;;26.72;42.60;101845.78;5005066;28;20050;-69
2022/08/31 07:47:32;;;;;;;5.00;1.40;;;;;;;26.93;43.10;101849.00;4998222;28;20049;-69
2022/08/31 07:49:59;;;;;;;8.18;1.55;;;;;;;26.26;42.93;101844.22;5004104;28;20046;-69
2022/08/31 07:52:28;;;;;;;2.42;1.30;;;;;;;26.17;44.75;101840.56;4995607;28;20084;-69
2022/08/31 07:55:03;;;;;;;3.75;1.38;;;;;;;26.17;43.43;101846.81;4993289;28;20054;-69
2022/08/31 07:57:35;;;;;;;4.90;1.30;;;;;;;26.74;43.59;101855.38;4994374;28;20077;-69
2022/08/31 08:00:07;;;;;;;4.18;1.45;;;;;;;26.85;42.94;101847.09;5000986;28;20386;-69
2022/08/31 08:02:36;;;;;;;7.60;1.60;;;;;;;27.31;40.49;101853.91;5005032;28;20069;-68
2022/08/31 08:05:05;;;;;;;6.60;1.60;;;;;;;27.14;41.75;101856.66;4991359;28;20041;-68
2022/08/31 08:07:32;;;;;;;4.63;1.25;;;;;;;27.30;40.25;101860.31;5003987;28;20046;-68
2022/08/31 08:10:00;;;;;;;2.97;1.20;;;;;;;27.36;40.26;101862.34;5005146;28;20096;-68
2022/08/31 08:12:27;;;;;;;3.67;1.40;;;;;;;27.38;40.16;101865.72;5003510;28;20037;-68
2022/08/31 08:14:57;;;;;;;5.13;1.10;;;;;;;27.84;39.72;101872.50;5004844;28;20046;-68
2022/08/31 08:17:24;;;;;;;5.28;1.20;;;;;;;27.95;39.91;101865.94;5003175;28;20041;-68
2022/08/31 08:19:50;;;;;;;4.10;1.40;;;;;;;27.93;39.23;101862.59;5002224;28;20108;-68
2022/08/31 08:22:16;;;;;;;5.00;1.40;;;;;;;28.35;39.22;101876.84;5002046;28;20046;-68
2022/08/31 08:24:46;;;;;;;4.68;1.13;;;;;;;27.57;39.13;101870.03;5005142;28;20054;-68
2022/08/31 08:27:15;;;;;;;5.05;1.40;;;;;;;27.28;39.53;101874.91;5004327;28;20049;-68
2022/08/31 08:29:41;;;;;;;3.45;1.20;;;;;;;27.61;40.83;101863.31;5003228;28;20481;-68
2022/08/31 08:32:08;;;;;;;3.80;1.45;;;;;;;27.68;39.86;101866.22;5005744;28;20478;-69
2022/08/31 08:34:40;;;;;;;5.47;1.50;;;;;;;27.55;39.89;101874.75;5004123;28;20720;-69
2022/08/31 08:37:07;;;;;;;3.30;1.30;;;;;;;28.01;39.17;101870.72;5003062;28;20050;-69
2022/08/31 08:39:33;;;;;;;3.85;1.20;;;;;;;28.08;39.09;101882.53;5004957;28;20508;-69
2022/08/31 08:42:00;;;;;;;4.38;1.50;;;;;;;27.81;39.09;101878.22;5009528;28;20050;-69
2022/08/31 08:44:31;;;;;;;7.40;1.70;;;;;;;27.88;39.93;101873.88;5006346;28;20084;-69
2022/08/31 08:47:00;;;;;;;3.70;1.08;;;;;;;27.53;39.58;101876.78;5011097;28;20452;-69
2022/08/31 08:49:38;;;;;;;7.82;1.48;;;;;;;26.34;41.27;101873.88;5012671;28;20041;-69
2022/08/31 08:52:10;;;;;;;9.02;1.80;;;;;;;26.54;41.65;101886.16;5003958;28;20559;-69
2022/08/31 08:54:38;;;;;;;;;;;;;;;27.20;40.95;101882.97;4999956;28;20113;-69
2022/08/31 08:57:11;;;;;;;6.45;1.60;;;;;;;26.95;39.91;101890.88;5003156;28;19921;-69
2022/08/31 08:59:39;;;;;;;4.70;1.40;;;;;;;26.77;40.84;101884.66;5006811;28;20056;-69
2022/08/31 09:02:08;;;;;;;4.75;1.38;;;;;;;27.30;39.88;101884.56;5008100;28;20105;-69
2022/08/31 09:04:52;;;;;;;3.83;1.23;;;;;;;26.72;39.26;101888.84;5006948;28;20069;-69
2022/08/31 09:07:33;;;;;;;6.70;1.50;;;;;;;27.33;38.56;101880.69;5011681;28;20045;-69
2022/08/31 09:10:05;;;;;;;5.68;1.42;;;;;;;26.85;39.42;101884.75;5011079;28;20122;-69
2022/08/31 09:12:43;;;;;;;6.15;1.52;;;;;;;26.37;41.46;101881.63;5015799;28;20109;-69
2022/08/31 09:15:37;;;;;;;7.63;1.42;;;;;;;26.34;41.50;101887.31;5007578;28;20046;-69
2022/08/31 09:18:17;;;;;;;5.18;1.40;;;;;;;26.37;40.13;101881.63;5004091;28;20489;-69
2022/08/31 09:20:58;;;;;;;10.02;1.50;;;;;;;26.96;40.44;101879.13;5002106;28;20105;-69
2022/08/31 09:23:26;;;;;;;7.43;1.63;;;;;;;26.27;40.43;101878.19;5003755;28;20038;-69
2022/08/31 09:25:53;;;;;;;4.85;1.30;;;;;;;26.71;39.78;101871.84;5005956;28;20057;-69
2022/08/31 09:28:33;;;;;;;5.40;1.38;;;;;;;27.15;39.38;101874.53;5017798;28;20065;-69
2022/08/31 09:31:02;;;;;;;7.53;1.33;;;;;;;27.20;38.42;101867.63;4993750;28;20498;-69
2022/08/31 09:33:31;;;;;;;3.17;1.30;;;;;;;27.39;37.91;101872.78;4997164;28;20046;-68
2022/08/31 09:36:14;;;;;;;4.00;1.40;;;;;;;27.07;37.93;101876.16;4998737;28;20050;-68
2022/08/31 09:38:42;;;;;;;3.33;1.20;;;;;;;26.11;40.54;101868.94;5006423;28;20046;-68
2022/08/31 09:41:21;;;;;;;8.20;1.45;;;;;;;26.47;40.61;101877.00;5007992;28;20052;-68
2022/08/31 09:43:48;;;;;;;5.45;1.67;;;;;;;26.91;37.99;101861.75;5005982;28;20050;-68
2022/08/31 09:46:25;;;;;;;5.15;1.50;;;;;;;26.14;39.38;101865.94;5008129;28;20065;-68
2022/08/31 09:48:55;;;;;;;3.25;1.20;;;;;;;26.19;37.63;101875.41;5005581;28;20053;-67
2022/08/31 09:51:27;;;;;;;4.30;1.50;;;;;;;26.85;38.94;101865.94;5007200;28;20046;-68
2022/08/31 09:56:54;;;;;;;3.78;1.23;;;;;;;26.99;37.56;101861.81;5004455;28;20049;-68
2022/08/31 09:59:36;;;;;;;3.83;1.30;;;;;;;26.31;36.62;101852.69;4991421;28;20061;-68
2022/08/31 10:02:06;;;;;;;;;;;;;;;26.68;36.01;101857.88;5006135;28;20049;-68
2022/08/31 10:04:36;;;;;;;4.78;1.13;;;;;;;26.15;37.61;101853.34;5008619;28;19929;-67
2022/08/31 10:07:10;;;;;;;2.28;1.25;;;;;;;26.90;37.98;101850.13;5006905;28;20500;-68
2022/08/31 10:09:43;;;;;;;4.82;1.40;;;;;;;27.40;34.94;101838.63;5005001;28;20532;-68
2022/08/31 10:12:18;;;;;;;1.98;0.95;;;;;;;27.88;33.44;101849.59;5006143;28;20053;-68
2022/08/31 10:14:50;;;;;;;2.80;1.00;;;;;;;27.48;35.14;101846.78;5004711;28;20061;-67
2022/08/31 10:17:25;;;;;;;2.03;0.80;;;;;;;28.62;33.43;101843.28;5007085;28;20092;-67
2022/08/31 10:19:58;;;;;;;2.05;0.90;;;;;;;28.79;32.42;101836.88;5005884;28;20073;-67
2022/08/31 10:22:31;;;;;;;2.60;1.10;;;;;;;29.28;31.33;101826.81;5006826;28;20042;-68
2022/08/31 10:25:11;;;;;;;2.60;1.00;;;;;;;29.48;30.43;101830.78;5007287;28;20050;-67
2022/08/31 10:27:41;;;;;;;5.22;1.10;;;;;;;29.13;30.91;101827.69;5006329;28;20037;-67
2022/08/31 10:30:16;;;;;;;1.88;0.90;;;;;;;28.72;32.11;101835.03;5005948;28;20069;-67
2022/08/31 10:32:51;;;;;;;1.85;0.93;;;;;;;28.63;32.76;101828.78;5004836;28;20093;-67
2022/08/31 10:35:21;;;;;;;4.70;0.82;;;;;;;28.45;32.41;101834.38;5007576;28;20073;-67
2022/08/31 10:37:55;;;;;;;2.70;1.00;;;;;;;27.95;30.93;101830.91;4999576;28;20050;-68
2022/08/31 10:40:28;;;;;;;6.35;0.90;;;;;;;27.57;32.57;101829.63;5006461;28;20485;-68
2022/08/31 10:43:08;;;;;;;2.03;0.90;;;;;;;27.69;32.56;101836.41;5006300;28;20046;-68
2022/08/31 10:45:39;;;;;;;4.68;0.80;;;;;;;27.77;32.73;101828.34;5004733;28;20049;-68
2022/08/31 10:48:09;;;;;;;3.38;1.20;;;;;;;28.54;34.26;101835.19;5006076;28;20042;-67
2022/08/31 10:50:44;;;;;;;1.90;0.90;;;;;;;28.11;33.31;101822.03;5005260;28;20053;-67
2022/08/31 10:53:21;;;;;;;3.53;1.10;;;;;;;28.78;32.79;101824.41;5002785;28;20048;-67
2022/08/31 10:55:57;;;;;;;3.92;0.88;;;;;;;28.84;31.24;101828.25;4994476;28;20414;-67
2022/08/31 10:58:36;;;;;;;1.45;0.80;;;;;;;28.74;32.31;101823.06;5001055;28;20081;-67
2022/08/31 11:01:09;;;;;;;2.10;0.90;;;;;;;28.90;32.02;101828.41;5005327;28;20127;-68
2022/08/31 11:03:52;;;;;;;2.35;1.10;;;;;;;28.86;29.24;101821.66;5005783;28;20042;-68
2022/08/31 11:06:28;;;;;;;3.25;1.13;;;;;;;28.38;29.90;101827.94;5003564;28;20049;-67
2022/08/31 11:09:00;;;;;;;3.45;0.80;;;;;;;28.11;31.00;101820.19;5005664;28;20057;-67
2022/08/31 11:11:36;;;;;;;3.03;1.08;;;;;;;27.78;30.75;101827.34;5005127;28;20065;-67
2022/08/31 11:14:42;;;;;;;2.28;1.00;;;;;;;28.55;31.81;101823.38;5005678;28;20042;-67
2022/08/31 11:17:24;;;;;;;2.60;0.98;;;;;;;28.99;30.52;101804.94;4985455;28;20042;-67
2022/08/31 11:20:22;;;;;;;3.20;1.00;;;;;;;29.08;28.53;101824.69;4985145;28;20073;-67
2022/08/31 11:23:15;;;;;;;2.95;0.95;;;;;;;29.05;28.16;101808.81;4997784;28;20041;-67
2022/08/31 11:26:22;;;;;;;4.82;1.10;;;;;;;29.02;29.00;101799.19;5005528;28;20095;-68
2022/08/31 11:28:54;;;;;;;1.83;0.80;;;;;;;29.26;27.59;101792.88;5015751;28;20046;-67
2022/08/31 11:31:24;;;;;;;10.75;1.05;;;;;;;29.58;27.26;101798.13;5004810;28;20038;-67
2022/08/31 11:33:56;;;;;;;5.50;0.90;;;;;;;29.99;28.31;101787.09;5005189;28;20100;-67
2022/08/31 11:36:48;;;;;;;1.20;0.90;;;;;;;30.12;28.60;101796.25;5005961;28;20045;-67
2022/08/31 11:39:25;;;;;;;4.68;1.00;;;;;;;29.75;28.08;101790.78;5004025;28;20050;-67
2022/08/31 11:41:52;;;;;;;4.63;0.98;;;;;;;29.81;28.09;101796.31;5004108;28;20104;-67
2022/08/31 11:44:46;;;;;;;1.98;0.90;;;;;;;29.46;28.11;101783.31;5005545;28;20506;-67
2022/08/31 11:47:34;;;;;;;7.20;1.00;;;;;;;29.21;29.13;101785.28;5000972;28;20160;-67
2022/08/31 11:50:04;;;;;;;4.05;1.00;;;;;;;29.53;29.08;101792.41;5004809;28;20128;-68